sensor_id;sensor_type;location;lat;lon;timestamp;P1;durP1;ratioP1;P2;durP2;ratioP2
17631;SDS011;8934;51.194;17.150;2022-09-09T00:00:30;4.97;;;4.50;;
17631;SDS011;8934;51.194;17.150;2022-09-09T00:03:23;5.20;;;4.80;;
17631;SDS011;8934;51.194;17.150;2022-09-09T00:06:16;5.45;;;5.05;;
17631;SDS011;8934;51.194;17.150;2022-09-09T00:09:12;8.98;;;5.30;;
17631;SDS011;8934;51.194;17.150;2022-09-09T00:12:04;4.22;;;3.83;;
17631;SDS011;8934;51.194;17.150;2022-09-09T00:14:58;4.70;;;4.30;;
17631;SDS011;8934;51.194;17.150;2022-09-09T00:17:51;4.80;;;4.40;;
17631;SDS011;8934;51.194;17.150;2022-09-09T00:20:43;4.78;;;4.32;;
17631;SDS011;8934;51.194;17.150;2022-09-09T00:23:39;4.70;;;4.30;;
17631;SDS011;8934;51.194;17.150;2022-09-09T00:26:30;5.38;;;3.70;;
17631;SDS011;8934;51.194;17.150;2022-09-09T00:29:24;5.47;;;4.97;;
17631;SDS011;8934;51.194;17.150;2022-09-09T00:32:21;5.18;;;4.78;;
17631;SDS011;8934;51.194;17.150;2022-09-09T00:35:14;4.00;;;3.70;;
17631;SDS011;8934;51.194;17.150;2022-09-09T00:38:06;5.60;;;4.72;;
17631;SDS011;8934;51.194;17.150;2022-09-09T00:41:03;4.85;;;4.35;;
17631;SDS011;8934;51.194;17.150;2022-09-09T00:44:00;3.63;;;3.33;;
17631;SDS011;8934;51.194;17.150;2022-09-09T00:50:00;3.75;;;3.45;;
17631;SDS011;8934;51.194;17.150;2022-09-09T00:52:58;3.72;;;3.42;;
17631;SDS011;8934;51.194;17.150;2022-09-09T00:56:02;3.78;;;3.22;;
17631;SDS011;8934;51.194;17.150;2022-09-09T00:59:00;3.53;;;3.28;;
17631;SDS011;8934;51.194;17.150;2022-09-09T01:02:16;3.95;;;3.63;;
17631;SDS011;8934;51.194;17.150;2022-09-09T01:05:17;3.70;;;3.40;;
17631;SDS011;8934;51.194;17.150;2022-09-09T01:08:12;3.08;;;2.88;;
17631;SDS011;8934;51.194;17.150;2022-09-09T01:11:17;4.18;;;2.95;;
17631;SDS011;8934;51.194;17.150;2022-09-09T01:14:10;3.58;;;3.28;;
17631;SDS011;8934;51.194;17.150;2022-09-09T01:17:08;3.83;;;3.53;;
17631;SDS011;8934;51.194;17.150;2022-09-09T01:20:06;3.80;;;3.50;;
17631;SDS011;8934;51.194;17.150;2022-09-09T01:23:12;4.85;;;3.60;;
17631;SDS011;8934;51.194;17.150;2022-09-09T01:26:33;4.03;;;3.72;;
17631;SDS011;8934;51.194;17.150;2022-09-09T01:29:28;3.50;;;3.30;;
17631;SDS011;8934;51.194;17.150;2022-09-09T01:32:39;4.50;;;3.50;;
17631;SDS011;8934;51.194;17.150;2022-09-09T01:35:33;5.45;;;4.95;;
17631;SDS011;8934;51.194;17.150;2022-09-09T01:38:26;5.88;;;5.28;;
17631;SDS011;8934;51.194;17.150;2022-09-09T01:41:16;9.00;;;6.22;;
17631;SDS011;8934;51.194;17.150;2022-09-09T01:44:22;6.18;;;4.20;;
17631;SDS011;8934;51.194;17.150;2022-09-09T01:47:13;4.45;;;3.60;;
17631;SDS011;8934;51.194;17.150;2022-09-09T01:50:17;3.55;;;3.25;;
17631;SDS011;8934;51.194;17.150;2022-09-09T01:53:06;3.22;;;3.03;;
17631;SDS011;8934;51.194;17.150;2022-09-09T01:56:00;2.95;;;2.75;;
17631;SDS011;8934;51.194;17.150;2022-09-09T01:59:02;3.28;;;2.50;;
17631;SDS011;8934;51.194;17.150;2022-09-09T02:02:04;3.22;;;2.97;;
17631;SDS011;8934;51.194;17.150;2022-09-09T02:05:03;3.95;;;2.53;;
17631;SDS011;8934;51.194;17.150;2022-09-09T02:07:58;2.85;;;2.65;;
17631;SDS011;8934;51.194;17.150;2022-09-09T02:11:06;3.30;;;3.10;;
17631;SDS011;8934;51.194;17.150;2022-09-09T02:14:03;3.03;;;2.83;;
17631;SDS011;8934;51.194;17.150;2022-09-09T02:16:55;3.28;;;3.08;;
17631;SDS011;8934;51.194;17.150;2022-09-09T02:20:09;3.22;;;3.03;;
17631;SDS011;8934;51.194;17.150;2022-09-09T02:23:05;3.08;;;2.88;;
17631;SDS011;8934;51.194;17.150;2022-09-09T02:25:56;7.10;;;2.78;;
17631;SDS011;8934;51.194;17.150;2022-09-09T02:28:45;2.20;;;2.10;;
17631;SDS011;8934;51.194;17.150;2022-09-09T02:31:34;2.60;;;2.40;;
17631;SDS011;8934;51.194;17.150;2022-09-09T02:34:28;3.22;;;2.38;;
17631;SDS011;8934;51.194;17.150;2022-09-09T02:37:20;2.28;;;2.15;;
17631;SDS011;8934;51.194;17.150;2022-09-09T02:40:15;2.20;;;2.10;;
17631;SDS011;8934;51.194;17.150;2022-09-09T02:43:07;2.30;;;2.20;;
17631;SDS011;8934;51.194;17.150;2022-09-09T02:45:57;2.80;;;2.60;;
17631;SDS011;8934;51.194;17.150;2022-09-09T02:48:56;2.85;;;2.60;;
17631;SDS011;8934;51.194;17.150;2022-09-09T02:51:51;2.83;;;2.63;;
17631;SDS011;8934;51.194;17.150;2022-09-09T02:54:49;2.28;;;2.15;;
17631;SDS011;8934;51.194;17.150;2022-09-09T02:57:43;2.50;;;2.40;;
17631;SDS011;8934;51.194;17.150;2022-09-09T03:00:35;2.20;;;2.10;;
17631;SDS011;8934;51.194;17.150;2022-09-09T03:03:23;2.50;;;2.40;;
17631;SDS011;8934;51.194;17.150;2022-09-09T03:06:11;2.45;;;2.25;;
17631;SDS011;8934;51.194;17.150;2022-09-09T03:08:58;2.72;;;2.47;;
17631;SDS011;8934;51.194;17.150;2022-09-09T03:11:49;3.67;;;2.85;;
17631;SDS011;8934;51.194;17.150;2022-09-09T03:14:38;3.03;;;2.83;;
17631;SDS011;8934;51.194;17.150;2022-09-09T03:17:26;2.55;;;2.35;;
17631;SDS011;8934;51.194;17.150;2022-09-09T03:20:15;3.08;;;2.88;;
17631;SDS011;8934;51.194;17.150;2022-09-09T03:23:03;2.35;;;2.25;;
17631;SDS011;8934;51.194;17.150;2022-09-09T03:25:52;2.87;;;2.67;;
17631;SDS011;8934;51.194;17.150;2022-09-09T03:28:50;2.88;;;2.60;;
17631;SDS011;8934;51.194;17.150;2022-09-09T03:31:41;2.67;;;2.47;;
17631;SDS011;8934;51.194;17.150;2022-09-09T03:34:29;2.75;;;2.50;;
17631;SDS011;8934;51.194;17.150;2022-09-09T03:37:17;2.58;;;2.38;;
17631;SDS011;8934;51.194;17.150;2022-09-09T03:40:08;3.58;;;3.28;;
17631;SDS011;8934;51.194;17.150;2022-09-09T03:42:57;5.03;;;3.10;;
17631;SDS011;8934;51.194;17.150;2022-09-09T03:45:46;4.00;;;3.70;;
17631;SDS011;8934;51.194;17.150;2022-09-09T03:48:35;4.10;;;3.80;;
17631;SDS011;8934;51.194;17.150;2022-09-09T03:51:23;4.18;;;3.88;;
17631;SDS011;8934;51.194;17.150;2022-09-09T03:54:11;4.35;;;4.05;;
17631;SDS011;8934;51.194;17.150;2022-09-09T03:56:59;6.20;;;5.10;;
17631;SDS011;8934;51.194;17.150;2022-09-09T03:59:47;7.00;;;5.80;;
17631;SDS011;8934;51.194;17.150;2022-09-09T04:02:36;5.10;;;4.60;;
17631;SDS011;8934;51.194;17.150;2022-09-09T04:05:25;6.68;;;5.82;;
17631;SDS011;8934;51.194;17.150;2022-09-09T04:08:13;5.25;;;4.78;;
17631;SDS011;8934;51.194;17.150;2022-09-09T04:11:01;4.65;;;4.35;;
17631;SDS011;8934;51.194;17.150;2022-09-09T04:13:52;4.43;;;4.13;;
17631;SDS011;8934;51.194;17.150;2022-09-09T04:16:40;3.85;;;3.55;;
17631;SDS011;8934;51.194;17.150;2022-09-09T04:19:32;3.42;;;3.22;;
17631;SDS011;8934;51.194;17.150;2022-09-09T04:22:20;4.07;;;3.38;;
17631;SDS011;8934;51.194;17.150;2022-09-09T04:25:08;3.90;;;3.50;;
17631;SDS011;8934;51.194;17.150;2022-09-09T04:27:56;3.30;;;3.10;;
17631;SDS011;8934;51.194;17.150;2022-09-09T04:30:45;3.13;;;2.92;;
17631;SDS011;8934;51.194;17.150;2022-09-09T04:33:33;3.85;;;3.55;;
17631;SDS011;8934;51.194;17.150;2022-09-09T04:36:27;3.97;;;3.38;;
17631;SDS011;8934;51.194;17.150;2022-09-09T04:39:19;4.80;;;4.40;;
17631;SDS011;8934;51.194;17.150;2022-09-09T04:42:07;4.18;;;3.78;;
17631;SDS011;8934;51.194;17.150;2022-09-09T04:44:55;4.10;;;3.80;;
17631;SDS011;8934;51.194;17.150;2022-09-09T04:47:42;4.22;;;3.92;;
17631;SDS011;8934;51.194;17.150;2022-09-09T04:50:30;4.10;;;3.72;;
17631;SDS011;8934;51.194;17.150;2022-09-09T04:53:20;4.40;;;4.10;;
17631;SDS011;8934;51.194;17.150;2022-09-09T04:56:08;4.25;;;3.95;;
17631;SDS011;8934;51.194;17.150;2022-09-09T04:59:01;4.85;;;4.32;;
17631;SDS011;8934;51.194;17.150;2022-09-09T05:02:02;5.30;;;4.90;;
17631;SDS011;8934;51.194;17.150;2022-09-09T05:04:50;3.90;;;3.60;;
17631;SDS011;8934;51.194;17.150;2022-09-09T05:07:38;5.70;;;5.30;;
17631;SDS011;8934;51.194;17.150;2022-09-09T05:10:27;4.57;;;4.28;;
17631;SDS011;8934;51.194;17.150;2022-09-09T05:13:16;5.05;;;4.65;;
17631;SDS011;8934;51.194;17.150;2022-09-09T05:16:04;7.80;;;7.20;;
17631;SDS011;8934;51.194;17.150;2022-09-09T05:18:52;6.72;;;6.22;;
17631;SDS011;8934;51.194;17.150;2022-09-09T05:21:40;6.72;;;6.22;;
17631;SDS011;8934;51.194;17.150;2022-09-09T05:24:28;6.95;;;6.45;;
17631;SDS011;8934;51.194;17.150;2022-09-09T05:27:22;7.88;;;7.22;;
17631;SDS011;8934;51.194;17.150;2022-09-09T05:30:10;7.05;;;6.47;;
17631;SDS011;8934;51.194;17.150;2022-09-09T05:32:58;7.55;;;7.03;;
17631;SDS011;8934;51.194;17.150;2022-09-09T05:35:46;8.02;;;7.40;;
17631;SDS011;8934;51.194;17.150;2022-09-09T05:38:35;8.32;;;7.72;;
17631;SDS011;8934;51.194;17.150;2022-09-09T05:41:24;10.30;;;9.50;;
17631;SDS011;8934;51.194;17.150;2022-09-09T05:44:15;11.85;;;10.85;;
17631;SDS011;8934;51.194;17.150;2022-09-09T05:47:03;15.10;;;13.73;;
17631;SDS011;8934;51.194;17.150;2022-09-09T05:49:53;21.85;;;18.58;;
17631;SDS011;8934;51.194;17.150;2022-09-09T05:52:41;23.10;;;19.05;;
17631;SDS011;8934;51.194;17.150;2022-09-09T05:55:30;23.80;;;20.90;;
17631;SDS011;8934;51.194;17.150;2022-09-09T05:58:18;22.35;;;20.05;;
17631;SDS011;8934;51.194;17.150;2022-09-09T06:01:08;25.10;;;21.33;;
17631;SDS011;8934;51.194;17.150;2022-09-09T06:03:57;23.08;;;20.67;;
17631;SDS011;8934;51.194;17.150;2022-09-09T06:06:46;18.65;;;16.75;;
17631;SDS011;8934;51.194;17.150;2022-09-09T06:09:36;20.05;;;17.98;;
17631;SDS011;8934;51.194;17.150;2022-09-09T06:12:25;21.65;;;19.08;;
17631;SDS011;8934;51.194;17.150;2022-09-09T06:15:13;21.73;;;19.42;;
17631;SDS011;8934;51.194;17.150;2022-09-09T06:18:02;19.52;;;17.42;;
17631;SDS011;8934;51.194;17.150;2022-09-09T06:20:54;21.40;;;19.23;;
17631;SDS011;8934;51.194;17.150;2022-09-09T06:23:43;19.10;;;17.27;;
17631;SDS011;8934;51.194;17.150;2022-09-09T06:26:32;19.65;;;17.58;;
17631;SDS011;8934;51.194;17.150;2022-09-09T06:29:21;20.60;;;17.45;;
17631;SDS011;8934;51.194;17.150;2022-09-09T06:32:10;17.25;;;15.68;;
17631;SDS011;8934;51.194;17.150;2022-09-09T06:34:59;18.42;;;16.70;;
17631;SDS011;8934;51.194;17.150;2022-09-09T06:37:49;20.58;;;18.67;;
17631;SDS011;8934;51.194;17.150;2022-09-09T06:40:37;18.40;;;16.70;;
17631;SDS011;8934;51.194;17.150;2022-09-09T06:43:26;19.38;;;17.58;;
17631;SDS011;8934;51.194;17.150;2022-09-09T06:46:15;19.20;;;17.35;;
17631;SDS011;8934;51.194;17.150;2022-09-09T06:49:05;17.77;;;16.27;;
17631;SDS011;8934;51.194;17.150;2022-09-09T06:51:54;17.55;;;15.95;;
17631;SDS011;8934;51.194;17.150;2022-09-09T06:54:42;17.13;;;15.63;;
17631;SDS011;8934;51.194;17.150;2022-09-09T06:57:33;16.88;;;15.45;;
17631;SDS011;8934;51.194;17.150;2022-09-09T07:00:25;13.18;;;12.02;;
17631;SDS011;8934;51.194;17.150;2022-09-09T07:03:14;13.95;;;12.82;;
17631;SDS011;8934;51.194;17.150;2022-09-09T07:06:03;11.80;;;10.80;;
17631;SDS011;8934;51.194;17.150;2022-09-09T07:08:53;10.50;;;9.68;;
17631;SDS011;8934;51.194;17.150;2022-09-09T07:11:46;10.95;;;10.05;;
17631;SDS011;8934;51.194;17.150;2022-09-09T07:14:37;10.75;;;9.70;;
17631;SDS011;8934;51.194;17.150;2022-09-09T07:17:26;9.52;;;8.73;;
17631;SDS011;8934;51.194;17.150;2022-09-09T07:20:17;9.00;;;8.30;;
17631;SDS011;8934;51.194;17.150;2022-09-09T07:23:06;8.13;;;7.53;;
17631;SDS011;8934;51.194;17.150;2022-09-09T07:25:56;8.40;;;7.60;;
17631;SDS011;8934;51.194;17.150;2022-09-09T07:28:44;8.68;;;8.07;;
17631;SDS011;8934;51.194;17.150;2022-09-09T07:31:33;8.75;;;7.95;;
17631;SDS011;8934;51.194;17.150;2022-09-09T07:34:26;9.48;;;8.77;;
17631;SDS011;8934;51.194;17.150;2022-09-09T07:37:14;7.80;;;7.18;;
17631;SDS011;8934;51.194;17.150;2022-09-09T07:40:05;7.45;;;6.80;;
17631;SDS011;8934;51.194;17.150;2022-09-09T07:42:55;6.75;;;6.25;;
17631;SDS011;8934;51.194;17.150;2022-09-09T07:45:44;6.68;;;6.13;;
17631;SDS011;8934;51.194;17.150;2022-09-09T07:48:33;7.00;;;6.40;;
17631;SDS011;8934;51.194;17.150;2022-09-09T07:51:22;6.05;;;5.65;;
17631;SDS011;8934;51.194;17.150;2022-09-09T07:54:13;6.22;;;5.82;;
17631;SDS011;8934;51.194;17.150;2022-09-09T07:57:03;6.97;;;6.38;;
17631;SDS011;8934;51.194;17.150;2022-09-09T07:59:55;7.90;;;5.43;;
17631;SDS011;8934;51.194;17.150;2022-09-09T08:02:43;6.88;;;6.28;;
17631;SDS011;8934;51.194;17.150;2022-09-09T08:05:32;6.60;;;6.10;;
17631;SDS011;8934;51.194;17.150;2022-09-09T08:08:20;7.45;;;6.85;;
17631;SDS011;8934;51.194;17.150;2022-09-09T08:11:10;6.30;;;5.80;;
17631;SDS011;8934;51.194;17.150;2022-09-09T08:14:01;6.18;;;5.50;;
17631;SDS011;8934;51.194;17.150;2022-09-09T08:16:51;6.18;;;5.68;;
17631;SDS011;8934;51.194;17.150;2022-09-09T08:19:42;6.25;;;5.65;;
17631;SDS011;8934;51.194;17.150;2022-09-09T08:22:35;5.80;;;5.00;;
17631;SDS011;8934;51.194;17.150;2022-09-09T08:25:23;5.10;;;4.68;;
17631;SDS011;8934;51.194;17.150;2022-09-09T08:28:11;4.75;;;3.90;;
17631;SDS011;8934;51.194;17.150;2022-09-09T08:31:04;3.72;;;3.42;;
17631;SDS011;8934;51.194;17.150;2022-09-09T08:33:56;4.15;;;3.85;;
17631;SDS011;8934;51.194;17.150;2022-09-09T08:36:46;6.70;;;3.58;;
17631;SDS011;8934;51.194;17.150;2022-09-09T08:39:37;3.53;;;3.20;;
17631;SDS011;8934;51.194;17.150;2022-09-09T08:42:31;3.72;;;3.42;;
17631;SDS011;8934;51.194;17.150;2022-09-09T08:45:26;3.38;;;3.08;;
17631;SDS011;8934;51.194;17.150;2022-09-09T08:48:29;3.10;;;2.78;;
17631;SDS011;8934;51.194;17.150;2022-09-09T08:51:31;3.47;;;2.88;;
17631;SDS011;8934;51.194;17.150;2022-09-09T08:54:20;3.70;;;2.10;;
17631;SDS011;8934;51.194;17.150;2022-09-09T08:57:29;2.70;;;1.90;;
17631;SDS011;8934;51.194;17.150;2022-09-09T09:00:19;1.92;;;1.75;;
17631;SDS011;8934;51.194;17.150;2022-09-09T09:03:10;3.00;;;2.10;;
17631;SDS011;8934;51.194;17.150;2022-09-09T09:06:06;1.77;;;1.65;;
17631;SDS011;8934;51.194;17.150;2022-09-09T09:09:16;1.48;;;1.38;;
17631;SDS011;8934;51.194;17.150;2022-09-09T09:12:14;1.80;;;1.35;;
17631;SDS011;8934;51.194;17.150;2022-09-09T09:15:05;3.72;;;1.65;;
17631;SDS011;8934;51.194;17.150;2022-09-09T09:18:04;2.78;;;1.25;;
17631;SDS011;8934;51.194;17.150;2022-09-09T09:20:57;1.42;;;1.33;;
17631;SDS011;8934;51.194;17.150;2022-09-09T09:23:53;2.95;;;1.60;;
17631;SDS011;8934;51.194;17.150;2022-09-09T09:26:47;3.50;;;1.63;;
17631;SDS011;8934;51.194;17.150;2022-09-09T09:29:38;3.08;;;1.75;;
17631;SDS011;8934;51.194;17.150;2022-09-09T09:32:51;1.75;;;1.48;;
17631;SDS011;8934;51.194;17.150;2022-09-09T09:35:41;2.72;;;1.70;;
17631;SDS011;8934;51.194;17.150;2022-09-09T09:38:32;1.80;;;1.67;;
17631;SDS011;8934;51.194;17.150;2022-09-09T09:41:41;2.20;;;1.70;;
17631;SDS011;8934;51.194;17.150;2022-09-09T09:44:34;2.85;;;1.60;;
17631;SDS011;8934;51.194;17.150;2022-09-09T09:47:30;5.30;;;3.20;;
17631;SDS011;8934;51.194;17.150;2022-09-09T09:50:28;1.90;;;1.60;;
17631;SDS011;8934;51.194;17.150;2022-09-09T09:53:22;3.85;;;1.50;;
17631;SDS011;8934;51.194;17.150;2022-09-09T09:56:13;2.72;;;1.65;;
17631;SDS011;8934;51.194;17.150;2022-09-09T09:59:02;2.75;;;2.10;;
17631;SDS011;8934;51.194;17.150;2022-09-09T10:02:18;2.03;;;1.60;;
17631;SDS011;8934;51.194;17.150;2022-09-09T10:05:17;3.75;;;2.03;;
17631;SDS011;8934;51.194;17.150;2022-09-09T10:08:14;1.77;;;1.60;;
17631;SDS011;8934;51.194;17.150;2022-09-09T10:11:12;3.35;;;1.80;;
17631;SDS011;8934;51.194;17.150;2022-09-09T10:14:15;3.53;;;1.80;;
17631;SDS011;8934;51.194;17.150;2022-09-09T10:17:14;1.40;;;1.30;;
17631;SDS011;8934;51.194;17.150;2022-09-09T10:20:18;1.50;;;1.40;;
17631;SDS011;8934;51.194;17.150;2022-09-09T10:23:20;2.25;;;1.67;;
17631;SDS011;8934;51.194;17.150;2022-09-09T10:26:20;1.50;;;1.40;;
17631;SDS011;8934;51.194;17.150;2022-09-09T10:29:28;1.95;;;1.50;;
17631;SDS011;8934;51.194;17.150;2022-09-09T10:32:35;1.55;;;1.40;;
17631;SDS011;8934;51.194;17.150;2022-09-09T10:35:27;2.30;;;1.20;;
17631;SDS011;8934;51.194;17.150;2022-09-09T10:38:19;1.38;;;1.27;;
17631;SDS011;8934;51.194;17.150;2022-09-09T10:41:15;3.13;;;1.25;;
17631;SDS011;8934;51.194;17.150;2022-09-09T10:44:15;4.10;;;1.60;;
17631;SDS011;8934;51.194;17.150;2022-09-09T10:47:18;1.65;;;1.40;;
17631;SDS011;8934;51.194;17.150;2022-09-09T10:50:29;3.70;;;1.30;;
17631;SDS011;8934;51.194;17.150;2022-09-09T10:54:03;2.25;;;1.77;;
17631;SDS011;8934;51.194;17.150;2022-09-09T10:57:02;2.90;;;1.35;;
17631;SDS011;8934;51.194;17.150;2022-09-09T10:59:58;1.85;;;1.38;;
17631;SDS011;8934;51.194;17.150;2022-09-09T11:02:50;1.38;;;1.27;;
17631;SDS011;8934;51.194;17.150;2022-09-09T11:05:44;2.15;;;1.48;;
17631;SDS011;8934;51.194;17.150;2022-09-09T11:08:36;1.40;;;1.25;;
17631;SDS011;8934;51.194;17.150;2022-09-09T11:11:27;2.38;;;1.30;;
17631;SDS011;8934;51.194;17.150;2022-09-09T11:14:19;1.67;;;1.15;;
17631;SDS011;8934;51.194;17.150;2022-09-09T11:17:13;2.20;;;1.98;;
17631;SDS011;8934;51.194;17.150;2022-09-09T11:20:05;2.20;;;1.20;;
17631;SDS011;8934;51.194;17.150;2022-09-09T11:23:00;2.08;;;1.23;;
17631;SDS011;8934;51.194;17.150;2022-09-09T11:25:52;1.58;;;1.42;;
17631;SDS011;8934;51.194;17.150;2022-09-09T11:28:47;2.08;;;1.45;;
17631;SDS011;8934;51.194;17.150;2022-09-09T11:31:53;1.50;;;1.20;;
17631;SDS011;8934;51.194;17.150;2022-09-09T11:34:53;2.28;;;1.20;;
17631;SDS011;8934;51.194;17.150;2022-09-09T11:37:55;2.38;;;1.30;;
17631;SDS011;8934;51.194;17.150;2022-09-09T11:40:58;1.48;;;1.00;;
17631;SDS011;8934;51.194;17.150;2022-09-09T11:43:48;1.77;;;1.05;;
17631;SDS011;8934;51.194;17.150;2022-09-09T11:46:38;1.13;;;0.95;;
17631;SDS011;8934;51.194;17.150;2022-09-09T11:49:28;2.15;;;0.90;;
17631;SDS011;8934;51.194;17.150;2022-09-09T11:52:35;2.35;;;1.08;;
17631;SDS011;8934;51.194;17.150;2022-09-09T11:55:30;1.33;;;0.90;;
17631;SDS011;8934;51.194;17.150;2022-09-09T11:58:21;1.13;;;1.02;;
17631;SDS011;8934;51.194;17.150;2022-09-09T12:01:13;0.80;;;0.80;;
17631;SDS011;8934;51.194;17.150;2022-09-09T12:04:09;1.17;;;0.88;;
17631;SDS011;8934;51.194;17.150;2022-09-09T12:07:22;1.48;;;0.90;;
17631;SDS011;8934;51.194;17.150;2022-09-09T12:10:21;1.67;;;1.10;;
17631;SDS011;8934;51.194;17.150;2022-09-09T12:13:18;2.25;;;1.08;;
17631;SDS011;8934;51.194;17.150;2022-09-09T12:19:20;1.10;;;0.90;;
17631;SDS011;8934;51.194;17.150;2022-09-09T12:22:15;0.93;;;0.88;;
17631;SDS011;8934;51.194;17.150;2022-09-09T12:25:16;1.30;;;1.20;;
17631;SDS011;8934;51.194;17.150;2022-09-09T12:28:11;1.65;;;1.35;;
17631;SDS011;8934;51.194;17.150;2022-09-09T12:31:06;1.52;;;1.00;;
17631;SDS011;8934;51.194;17.150;2022-09-09T12:34:08;1.10;;;1.00;;
17631;SDS011;8934;51.194;17.150;2022-09-09T12:36:58;1.50;;;1.10;;
17631;SDS011;8934;51.194;17.150;2022-09-09T12:39:53;1.77;;;1.08;;
17631;SDS011;8934;51.194;17.150;2022-09-09T12:42:44;2.65;;;0.95;;
17631;SDS011;8934;51.194;17.150;2022-09-09T12:45:32;1.80;;;1.10;;
17631;SDS011;8934;51.194;17.150;2022-09-09T12:48:24;1.73;;;1.38;;
17631;SDS011;8934;51.194;17.150;2022-09-09T12:51:23;1.60;;;1.20;;
17631;SDS011;8934;51.194;17.150;2022-09-09T12:54:13;2.28;;;1.20;;
17631;SDS011;8934;51.194;17.150;2022-09-09T12:57:01;1.17;;;1.10;;
17631;SDS011;8934;51.194;17.150;2022-09-09T12:59:50;1.05;;;1.02;;
17631;SDS011;8934;51.194;17.150;2022-09-09T13:02:45;1.95;;;1.20;;
17631;SDS011;8934;51.194;17.150;2022-09-09T13:05:38;1.65;;;1.20;;
17631;SDS011;8934;51.194;17.150;2022-09-09T13:08:26;1.95;;;1.33;;
17631;SDS011;8934;51.194;17.150;2022-09-09T13:11:14;2.83;;;1.20;;
17631;SDS011;8934;51.194;17.150;2022-09-09T13:14:04;1.77;;;1.67;;
17631;SDS011;8934;51.194;17.150;2022-09-09T13:16:54;1.77;;;1.30;;
17631;SDS011;8934;51.194;17.150;2022-09-09T13:19:44;2.83;;;1.25;;
17631;SDS011;8934;51.194;17.150;2022-09-09T13:22:35;1.73;;;1.08;;
17631;SDS011;8934;51.194;17.150;2022-09-09T13:25:25;1.50;;;1.30;;
17631;SDS011;8934;51.194;17.150;2022-09-09T13:28:18;1.10;;;1.10;;
17631;SDS011;8934;51.194;17.150;2022-09-09T13:31:19;3.00;;;1.30;;
17631;SDS011;8934;51.194;17.150;2022-09-09T13:34:11;1.88;;;1.50;;
17631;SDS011;8934;51.194;17.150;2022-09-09T13:37:01;1.75;;;1.23;;
17631;SDS011;8934;51.194;17.150;2022-09-09T13:39:53;2.20;;;1.38;;
17631;SDS011;8934;51.194;17.150;2022-09-09T13:42:41;1.50;;;1.30;;
17631;SDS011;8934;51.194;17.150;2022-09-09T13:45:29;1.55;;;1.30;;
17631;SDS011;8934;51.194;17.150;2022-09-09T13:48:17;1.75;;;1.42;;
17631;SDS011;8934;51.194;17.150;2022-09-09T13:54:15;2.13;;;1.23;;
17631;SDS011;8934;51.194;17.150;2022-09-09T13:57:13;2.20;;;1.52;;
17631;SDS011;8934;51.194;17.150;2022-09-09T14:00:03;2.78;;;1.40;;
17631;SDS011;8934;51.194;17.150;2022-09-09T14:02:54;1.27;;;1.17;;
17631;SDS011;8934;51.194;17.150;2022-09-09T14:05:42;1.20;;;1.10;;
17631;SDS011;8934;51.194;17.150;2022-09-09T14:08:31;1.17;;;1.10;;
17631;SDS011;8934;51.194;17.150;2022-09-09T14:11:23;1.48;;;0.82;;
17631;SDS011;8934;51.194;17.150;2022-09-09T14:14:13;2.05;;;1.40;;
17631;SDS011;8934;51.194;17.150;2022-09-09T14:17:00;2.28;;;1.30;;
17631;SDS011;8934;51.194;17.150;2022-09-09T14:19:53;2.20;;;1.13;;
17631;SDS011;8934;51.194;17.150;2022-09-09T14:22:41;2.13;;;1.10;;
17631;SDS011;8934;51.194;17.150;2022-09-09T14:25:29;2.38;;;1.23;;
17631;SDS011;8934;51.194;17.150;2022-09-09T14:28:17;2.50;;;1.10;;
17631;SDS011;8934;51.194;17.150;2022-09-09T14:31:26;1.33;;;1.05;;
17631;SDS011;8934;51.194;17.150;2022-09-09T14:34:14;1.35;;;1.20;;
17631;SDS011;8934;51.194;17.150;2022-09-09T14:37:02;2.90;;;1.40;;
17631;SDS011;8934;51.194;17.150;2022-09-09T14:39:50;2.78;;;1.30;;
17631;SDS011;8934;51.194;17.150;2022-09-09T14:42:38;1.98;;;1.00;;
17631;SDS011;8934;51.194;17.150;2022-09-09T14:45:26;1.13;;;1.02;;
17631;SDS011;8934;51.194;17.150;2022-09-09T14:48:15;1.73;;;0.93;;
17631;SDS011;8934;51.194;17.150;2022-09-09T14:51:06;2.25;;;1.17;;
17631;SDS011;8934;51.194;17.150;2022-09-09T14:53:55;1.13;;;1.02;;
17631;SDS011;8934;51.194;17.150;2022-09-09T14:56:44;1.20;;;1.10;;
17631;SDS011;8934;51.194;17.150;2022-09-09T14:59:33;1.38;;;1.23;;
17631;SDS011;8934;51.194;17.150;2022-09-09T15:02:21;1.30;;;1.20;;
17631;SDS011;8934;51.194;17.150;2022-09-09T15:05:11;1.48;;;1.10;;
17631;SDS011;8934;51.194;17.150;2022-09-09T15:07:58;1.42;;;1.33;;
17631;SDS011;8934;51.194;17.150;2022-09-09T15:10:46;1.30;;;1.20;;
17631;SDS011;8934;51.194;17.150;2022-09-09T15:13:34;1.45;;;1.30;;
17631;SDS011;8934;51.194;17.150;2022-09-09T15:16:25;2.05;;;1.10;;
17631;SDS011;8934;51.194;17.150;2022-09-09T15:19:14;1.27;;;1.17;;
17631;SDS011;8934;51.194;17.150;2022-09-09T15:22:03;1.00;;;1.00;;
17631;SDS011;8934;51.194;17.150;2022-09-09T15:24:53;1.35;;;1.17;;
17631;SDS011;8934;51.194;17.150;2022-09-09T15:27:41;1.20;;;0.95;;
17631;SDS011;8934;51.194;17.150;2022-09-09T15:30:30;1.08;;;1.08;;
17631;SDS011;8934;51.194;17.150;2022-09-09T15:33:18;1.13;;;1.10;;
17631;SDS011;8934;51.194;17.150;2022-09-09T15:36:12;1.17;;;1.05;;
17631;SDS011;8934;51.194;17.150;2022-09-09T15:39:03;1.20;;;1.02;;
17631;SDS011;8934;51.194;17.150;2022-09-09T15:41:52;0.90;;;0.90;;
17631;SDS011;8934;51.194;17.150;2022-09-09T15:44:40;1.42;;;1.23;;
17631;SDS011;8934;51.194;17.150;2022-09-09T15:47:28;1.15;;;1.00;;
17631;SDS011;8934;51.194;17.150;2022-09-09T15:50:16;1.60;;;1.48;;
17631;SDS011;8934;51.194;17.150;2022-09-09T15:53:04;1.75;;;1.63;;
17631;SDS011;8934;51.194;17.150;2022-09-09T15:55:55;1.75;;;1.63;;
17631;SDS011;8934;51.194;17.150;2022-09-09T15:58:43;1.27;;;1.20;;
17631;SDS011;8934;51.194;17.150;2022-09-09T16:01:31;2.33;;;1.20;;
17631;SDS011;8934;51.194;17.150;2022-09-09T16:04:19;1.88;;;1.52;;
17631;SDS011;8934;51.194;17.150;2022-09-09T16:07:10;2.72;;;1.67;;
17631;SDS011;8934;51.194;17.150;2022-09-09T16:09:57;1.92;;;1.50;;
17631;SDS011;8934;51.194;17.150;2022-09-09T16:12:46;1.70;;;1.23;;
17631;SDS011;8934;51.194;17.150;2022-09-09T16:15:35;1.50;;;1.40;;
17631;SDS011;8934;51.194;17.150;2022-09-09T16:18:22;1.85;;;1.10;;
17631;SDS011;8934;51.194;17.150;2022-09-09T16:21:13;1.55;;;1.17;;
17631;SDS011;8934;51.194;17.150;2022-09-09T16:24:02;1.92;;;1.38;;
17631;SDS011;8934;51.194;17.150;2022-09-09T16:26:52;2.97;;;1.60;;
17631;SDS011;8934;51.194;17.150;2022-09-09T16:29:42;1.90;;;1.65;;
17631;SDS011;8934;51.194;17.150;2022-09-09T16:32:31;2.28;;;1.70;;
17631;SDS011;8934;51.194;17.150;2022-09-09T16:35:21;3.15;;;1.73;;
17631;SDS011;8934;51.194;17.150;2022-09-09T16:38:09;2.45;;;1.73;;
17631;SDS011;8934;51.194;17.150;2022-09-09T16:40:58;1.65;;;1.55;;
17631;SDS011;8934;51.194;17.150;2022-09-09T16:43:46;1.60;;;1.50;;
17631;SDS011;8934;51.194;17.150;2022-09-09T16:46:41;1.88;;;1.60;;
17631;SDS011;8934;51.194;17.150;2022-09-09T16:49:30;2.97;;;2.00;;
17631;SDS011;8934;51.194;17.150;2022-09-09T16:52:17;1.90;;;1.80;;
17631;SDS011;8934;51.194;17.150;2022-09-09T16:55:05;3.85;;;1.67;;
17631;SDS011;8934;51.194;17.150;2022-09-09T16:57:55;1.40;;;1.30;;
17631;SDS011;8934;51.194;17.150;2022-09-09T17:00:42;1.65;;;1.55;;
17631;SDS011;8934;51.194;17.150;2022-09-09T17:03:33;2.00;;;1.90;;
17631;SDS011;8934;51.194;17.150;2022-09-09T17:06:23;1.98;;;1.60;;
17631;SDS011;8934;51.194;17.150;2022-09-09T17:09:11;3.25;;;1.50;;
17631;SDS011;8934;51.194;17.150;2022-09-09T17:12:06;1.90;;;1.80;;
17631;SDS011;8934;51.194;17.150;2022-09-09T17:14:58;2.28;;;1.92;;
17631;SDS011;8934;51.194;17.150;2022-09-09T17:17:46;1.85;;;1.75;;
17631;SDS011;8934;51.194;17.150;2022-09-09T17:20:41;1.92;;;1.80;;
17631;SDS011;8934;51.194;17.150;2022-09-09T17:23:32;4.90;;;1.95;;
17631;SDS011;8934;51.194;17.150;2022-09-09T17:26:24;1.83;;;1.73;;